Flight Track Log - Related Links

Times and Time Zones

All times are in EDT time to prevent confusion due to time zone crossing. See the RJC338 flight status page for this flight to view local times or setup timezone preferences in your user account.

Time Position Orientation Groundspeed Altitude Reporting Facility
EDT Latitude Longitude Course Direction KTS MPH feet Rate Location/Type
Sun 12:47:32 PM 42.2681 -73.7222 249° West 164 189 1,100  Level Boston Center
Sun 12:48:41 PM 42.2508 -73.7836 249° West 172 198 3,400 1,953 Climbing Boston Center
Sun 12:49:41 PM 42.2111 -73.7939 191° South 133 153 5,300 1,300 Climbing Boston Center
Sun 12:50:41 PM 42.1675 -73.7761 163° South 143 165 6,000 350 Climbing Boston Center
Sun 12:51:41 PM 42.1053 -73.7497 163° South 196 226 6,000 50 Level Boston Center
Sun 12:52:41 PM 42.0450 -73.7233 162° South 231 266 6,100 50 Climbing Boston Center
Sun 12:53:41 PM 41.9869 -73.6969 161° South 231 266 6,100  Level Boston Center
Sun 12:54:41 PM 41.9269 -73.6733 164° South 225 259 6,100  Level Boston Center
Sun 12:55:41 PM 41.8667 -73.6444 160° South 225 259 6,100  Level Boston Center
Sun 12:56:41 PM 41.8106 -73.6211 163° South 225 259 6,100  Level Boston Center
Sun 12:57:41 PM 41.7506 -73.5947 162° South 225 259 6,100  Level Boston Center
Sun 12:58:41 PM 41.6925 -73.5661 160° South 225 259 6,100 -38 Level Boston Center
Sun 01:00:20 PM 41.6000 -73.5167 158° South 221 254 6,000 -36 Descending New York TRACON
Sun 01:01:26 PM 41.5333 -73.4833 159° South 219 252 6,000 -350 Level New York TRACON
Sun 01:02:20 PM 41.4833 -73.4500 153° Southeast 235 270 5,300 -895 Descending New York TRACON
Sun 01:03:20 PM 41.4333 -73.3833 135° Southeast 245 282 4,300 -650 Descending New York TRACON
Sun 01:04:20 PM 41.4000 -73.3167 124° Southeast 235 270 4,000 -150 Descending New York TRACON
Sun 01:05:20 PM 41.3667 -73.2333 118° Southeast 223 257 4,000 -100 Level New York TRACON
Sun 01:06:20 PM 41.3333 -73.1667 124° Southeast 225 259 3,800 -526 Descending New York TRACON
Sun 01:07:14 PM 41.3000 -73.1167 132° Southeast 232 267 3,000 -421 Descending New York TRACON
Sun 01:08:14 PM 41.2667 -73.0333 118° Southeast 225 259 3,000  Level New York TRACON
Sun 01:09:14 PM 41.2333 -72.9667 124° Southeast 215 247 3,000  Level New York TRACON
Sun 01:10:14 PM 41.2000 -72.9000 124° Southeast 221 254 3,000  Level New York TRACON
Sun 01:11:08 PM 41.1667 -72.8500 132° Southeast 222 255 3,000  Level New York TRACON
Sun 01:12:08 PM 41.1333 -72.7833 124° Southeast 222 255 3,000  Level New York TRACON
Sun 01:13:08 PM 41.1000 -72.7167 124° Southeast 213 245 3,000 -450 Level New York TRACON
Sun 01:14:08 PM 41.0667 -72.6667 131° Southeast 193 222 2,100 -550 Descending New York TRACON
Sun 01:15:08 PM 41.0333 -72.6167 131° Southeast 165 190 1,900 -100 Descending New York TRACON
Sun 01:16:08 PM 41.0000 -72.5833 143° Southeast 150 173 1,900  Level New York TRACON
Sun 01:17:08 PM 40.9833 -72.5333 114° Southeast 152 175 1,900  Level New York TRACON
Sun 01:18:02 PM 40.9667 -72.4833 114° Southeast 160 184 1,900 -53 Level New York TRACON
Sun 01:19:02 PM 40.9500 -72.4333 114° Southeast 164 189 1,800 -200 Descending New York TRACON
Sun 01:20:02 PM 40.9500 -72.3667 90° East 141 162 1,500 -400 Descending New York TRACON
Sun 01:21:02 PM 40.9500 -72.3167 90° East 141 162 1,000 -500 Descending New York TRACON

Login

Don't have an account? Register now (free) for customized features, flight alerts, and more!